createdAt,value
2019-04-24T00:02:02.001Z,18.80
2019-04-24T00:04:54.969Z,18.80
2019-04-24T00:07:16.764Z,18.80
2019-04-24T00:10:28.298Z,18.80
2019-04-24T00:13:20.646Z,18.80
2019-04-24T00:16:10.216Z,18.80
2019-04-24T00:19:10.341Z,18.70
2019-04-24T00:22:02.562Z,18.70
2019-04-24T00:24:38.720Z,18.70
2019-04-24T00:27:23.157Z,18.60
2019-04-24T00:30:18.997Z,18.60
2019-04-24T00:33:15.029Z,18.60
2019-04-24T00:36:27.517Z,18.60
2019-04-24T00:41:50.890Z,18.60
2019-04-24T00:44:29.518Z,18.50
2019-04-24T00:50:11.046Z,18.50
2019-04-24T00:56:03.860Z,18.50
2019-04-24T00:58:59.411Z,18.40
2019-04-24T01:01:56.130Z,18.40
2019-04-24T01:07:58.574Z,18.40
2019-04-24T01:10:40.837Z,18.40
2019-04-24T01:13:32.986Z,18.40
2019-04-24T01:16:27.554Z,18.30
2019-04-24T01:19:15.863Z,18.30
2019-04-24T01:22:21.965Z,18.30
2019-04-24T01:25:15.994Z,18.30
2019-04-24T01:33:42.911Z,18.20
2019-04-24T01:37:01.551Z,18.20
2019-04-24T01:39:54.072Z,18.20
2019-04-24T01:42:34.470Z,18.20
2019-04-24T01:51:16.808Z,18.10
2019-04-24T01:54:03.226Z,18.10
2019-04-24T02:08:26.484Z,18.10
2019-04-24T02:14:16.942Z,18.00
2019-04-24T02:17:01.019Z,18.00
2019-04-24T02:19:48.021Z,18.00
2019-04-24T02:25:40.404Z,17.90
2019-04-24T02:31:25.647Z,17.90
2019-04-24T02:34:16.249Z,17.90
2019-04-24T02:37:23.307Z,17.90
2019-04-24T02:43:06.441Z,17.80
2019-04-24T02:45:53.528Z,17.80
2019-04-24T03:00:06.183Z,17.80
2019-04-24T03:03:15.146Z,17.80
2019-04-24T03:11:47.514Z,17.70
2019-04-24T03:14:56.484Z,17.70
2019-04-24T03:20:52.838Z,17.80
2019-04-24T03:34:58.971Z,18.10
2019-04-24T03:58:07.117Z,18.60
2019-04-24T04:00:48.646Z,18.60
2019-04-24T04:09:38.653Z,18.60
2019-04-24T04:12:25.773Z,18.60
2019-04-24T04:18:12.695Z,18.60
2019-04-24T04:26:42.788Z,18.60
2019-04-24T04:32:28.693Z,18.60
2019-04-24T04:38:10.554Z,18.50
2019-04-24T04:50:02.754Z,18.50
2019-04-24T05:01:35.042Z,18.40
2019-04-24T05:07:21.914Z,18.40
2019-04-24T05:09:59.756Z,18.40
2019-04-24T05:15:30.423Z,18.30
2019-04-24T05:18:46.333Z,18.30
2019-04-24T05:21:26.630Z,18.30
2019-04-24T05:24:17.994Z,18.30
2019-04-24T05:35:47.169Z,18.20
2019-04-24T05:39:10.676Z,18.20
2019-04-24T05:41:38.224Z,18.20
2019-04-24T05:44:23.629Z,18.20
2019-04-24T05:47:31.120Z,18.20
2019-04-24T05:50:39.820Z,18.20
2019-04-24T05:53:23.674Z,18.20
2019-04-24T05:56:34.159Z,18.10
2019-04-24T05:59:06.460Z,18.10
2019-04-24T06:04:56.467Z,18.10
2019-04-24T06:10:41.192Z,18.00
2019-04-24T06:13:39.316Z,18.00
2019-04-24T06:16:26.899Z,18.00
2019-04-24T06:19:26.090Z,18.00
2019-04-24T06:24:57.059Z,18.00
2019-04-24T06:28:03.185Z,18.10
2019-04-24T06:30:58.480Z,18.10
2019-04-24T06:33:39.957Z,18.10
2019-04-24T06:42:44.484Z,18.30
2019-04-24T06:45:33.488Z,18.30
2019-04-24T06:48:13.943Z,18.30
2019-04-24T06:54:13.989Z,18.40
2019-04-24T06:59:56.933Z,18.40
2019-04-24T07:03:02.161Z,18.50
2019-04-24T07:09:17.833Z,18.50
2019-04-24T07:12:06.273Z,18.50
2019-04-24T07:14:56.685Z,18.40
2019-04-24T07:23:28.959Z,18.30
2019-04-24T07:26:35.962Z,18.40
2019-04-24T07:29:13.919Z,18.40
2019-04-24T07:32:07.591Z,18.40
2019-04-24T07:35:02.018Z,18.50
2019-04-24T07:38:06.931Z,18.50
2019-04-24T07:43:41.648Z,18.50
2019-04-24T07:46:34.493Z,18.50
2019-04-24T07:52:27.066Z,18.50
2019-04-24T07:57:57.829Z,18.40
2019-04-24T08:00:57.394Z,18.40
2019-04-24T08:04:01.703Z,18.30
2019-04-24T08:10:05.979Z,18.50
2019-04-24T08:12:32.103Z,18.50
2019-04-24T08:15:28.424Z,18.60
2019-04-24T08:18:19.341Z,18.70
2019-04-24T08:23:54.813Z,18.90
2019-04-24T08:26:40.102Z,19.00
2019-04-24T08:29:43.542Z,19.20
2019-04-24T08:32:25.115Z,19.30
2019-04-24T08:35:47.252Z,19.40
2019-04-24T08:41:11.449Z,19.60
2019-04-24T08:43:59.717Z,19.70
2019-04-24T08:47:01.599Z,19.80
2019-04-24T08:55:32.892Z,20.00
2019-04-24T08:58:32.212Z,20.00
2019-04-24T09:04:17.246Z,20.10
2019-04-24T09:09:53.600Z,20.20
2019-04-24T09:15:19.079Z,20.10
2019-04-24T09:17:50.356Z,20.10
2019-04-24T09:28:34.753Z,19.90
2019-04-24T09:30:57.689Z,19.90
2019-04-24T09:33:33.603Z,19.90
2019-04-24T09:38:42.736Z,19.90
2019-04-24T09:41:30.514Z,20.00
2019-04-24T09:46:29.109Z,20.00
2019-04-24T09:54:20.919Z,19.90
2019-04-24T09:57:00.672Z,19.90
2019-04-24T09:59:28.714Z,19.90
2019-04-24T10:05:05.164Z,19.90
2019-04-24T10:09:58.243Z,19.90
2019-04-24T10:14:52.561Z,19.80
2019-04-24T10:17:35.918Z,19.90
2019-04-24T10:22:57.963Z,19.80
2019-04-24T10:25:38.559Z,19.80
2019-04-24T10:29:08.692Z,19.80
2019-04-24T10:34:54.365Z,19.80
2019-04-24T10:37:57.795Z,19.90
2019-04-24T10:43:25.060Z,19.90
2019-04-24T10:46:24.531Z,20.00
2019-04-24T10:49:22.402Z,20.00
2019-04-24T10:52:05.292Z,20.00
2019-04-24T10:55:14.953Z,20.00
2019-04-24T10:57:54.638Z,20.00
2019-04-24T11:00:52.248Z,20.10
2019-04-24T11:06:56.014Z,20.10
2019-04-24T11:13:02.355Z,20.20
2019-04-24T11:15:31.346Z,20.30
2019-04-24T11:18:24.644Z,20.30
2019-04-24T11:24:14.034Z,20.40
2019-04-24T11:27:13.978Z,20.40
2019-04-24T11:29:53.673Z,20.40
2019-04-24T11:37:53.777Z,20.50
2019-04-24T11:40:41.122Z,20.60
2019-04-24T11:42:53.953Z,20.60
2019-04-24T11:45:51.151Z,20.60
2019-04-24T11:51:17.771Z,20.60
2019-04-24T11:53:29.510Z,20.60
2019-04-24T11:56:03.878Z,20.60
2019-04-24T12:01:23.575Z,20.60
2019-04-24T12:04:05.756Z,20.60
2019-04-24T12:06:39.479Z,20.60
2019-04-24T12:09:02.447Z,20.60
2019-04-24T12:11:56.789Z,20.60
2019-04-24T12:14:21.057Z,20.50
2019-04-24T12:16:49.538Z,20.50
2019-04-24T12:19:39.607Z,20.50
2019-04-24T12:22:10.112Z,20.50
2019-04-24T12:27:18.463Z,20.50
2019-04-24T12:29:54.916Z,20.40
2019-04-24T12:32:59.747Z,20.50
2019-04-24T12:35:29.393Z,20.50
2019-04-24T12:40:40.535Z,20.50
2019-04-24T12:43:19.975Z,20.50
2019-04-24T12:45:58.283Z,20.40
2019-04-24T12:48:20.682Z,20.40
2019-04-24T12:51:05.770Z,20.40
2019-04-24T12:54:19.971Z,20.50
2019-04-24T12:59:51.477Z,20.80
2019-04-24T13:02:42.097Z,20.90
2019-04-24T13:05:40.829Z,21.00
2019-04-24T13:08:50.741Z,21.00
2019-04-24T13:11:22.919Z,21.10
2019-04-24T13:14:30.940Z,21.00
2019-04-24T13:19:31.049Z,21.00
2019-04-24T13:22:12.639Z,20.90
2019-04-24T13:24:57.792Z,21.00
2019-04-24T13:28:00.778Z,21.00
2019-04-24T13:30:20.909Z,21.00
2019-04-24T13:33:05.217Z,21.00
2019-04-24T13:35:51.894Z,21.00
2019-04-24T13:41:16.667Z,21.00
2019-04-24T13:44:19.624Z,21.10
2019-04-24T13:47:04.528Z,21.00
2019-04-24T13:50:02.858Z,21.00
2019-04-24T13:58:33.947Z,21.00
2019-04-24T14:15:34.610Z,20.90
2019-04-24T14:18:29.934Z,20.80
2019-04-24T14:21:10.906Z,20.80
2019-04-24T14:24:20.298Z,20.80
2019-04-24T14:29:42.524Z,20.80
2019-04-24T14:32:39.418Z,20.80
2019-04-24T14:38:48.130Z,20.70
2019-04-24T14:41:39.310Z,20.70
2019-04-24T14:44:22.646Z,20.70
2019-04-24T14:46:57.752Z,20.70
2019-04-24T14:51:56.223Z,20.70
2019-04-24T14:54:25.661Z,20.60
2019-04-24T14:57:05.608Z,20.60
2019-04-24T15:04:38.299Z,20.60
2019-04-24T15:09:32.562Z,20.60
2019-04-24T15:14:52.403Z,20.60
2019-04-24T15:17:29.080Z,20.60
2019-04-24T15:20:12.361Z,20.60
2019-04-24T15:22:50.932Z,20.60
2019-04-24T15:25:28.220Z,20.60
2019-04-24T15:27:46.702Z,20.50
2019-04-24T15:30:11.055Z,20.50
2019-04-24T15:37:53.184Z,20.50
2019-04-24T15:43:02.183Z,20.50
2019-04-24T15:45:24.864Z,20.50
2019-04-24T15:50:31.057Z,20.50
2019-04-24T15:52:32.986Z,20.50
2019-04-24T15:55:05.978Z,20.50
2019-04-24T15:57:37.726Z,20.50
2019-04-24T16:00:38.211Z,20.50
2019-04-24T16:03:27.876Z,20.40
2019-04-24T16:05:16.511Z,20.40
2019-04-24T16:07:54.784Z,20.40
2019-04-24T16:10:27.106Z,20.40
2019-04-24T16:12:57.833Z,20.40
2019-04-24T16:19:06.195Z,20.40
2019-04-24T16:28:47.777Z,20.40
2019-04-24T16:31:39.029Z,20.40
2019-04-24T16:34:07.861Z,20.50
2019-04-24T16:37:00.153Z,20.50
2019-04-24T16:40:08.920Z,20.50
2019-04-24T16:43:04.062Z,20.50
2019-04-24T16:45:40.467Z,20.50
2019-04-24T16:59:28.931Z,20.60
2019-04-24T17:02:35.017Z,20.70
2019-04-24T17:05:29.630Z,20.70
2019-04-24T17:08:23.722Z,20.70
2019-04-24T17:14:10.676Z,20.80
2019-04-24T17:17:24.169Z,20.80
2019-04-24T17:25:30.022Z,20.70
2019-04-24T17:31:09.352Z,20.70
2019-04-24T17:34:02.607Z,20.70
2019-04-24T17:36:26.640Z,20.70
2019-04-24T17:39:12.169Z,20.60
2019-04-24T17:42:06.330Z,20.60
2019-04-24T17:50:57.413Z,20.60
2019-04-24T17:53:45.183Z,20.50
2019-04-24T17:56:42.623Z,20.50
2019-04-24T17:58:59.730Z,20.50
2019-04-24T18:01:47.816Z,20.50
2019-04-24T18:04:36.065Z,20.50
2019-04-24T18:07:24.442Z,20.40
2019-04-24T18:10:13.220Z,20.40
2019-04-24T18:13:03.554Z,20.40
2019-04-24T18:15:52.299Z,20.40
2019-04-24T18:18:41.106Z,20.40
2019-04-24T18:21:32.222Z,20.30
2019-04-24T18:24:37.395Z,20.30
2019-04-24T18:27:31.365Z,20.30
2019-04-24T18:30:22.255Z,20.30
2019-04-24T18:33:11.969Z,20.30
2019-04-24T18:36:00.521Z,20.20
2019-04-24T18:38:48.571Z,20.20
2019-04-24T18:41:36.527Z,20.20
2019-04-24T18:44:24.668Z,20.20
2019-04-24T18:47:13.646Z,20.20
2019-04-24T18:50:02.438Z,20.10
2019-04-24T18:52:52.334Z,20.20
2019-04-24T18:55:42.234Z,20.00
2019-04-24T18:58:31.186Z,19.80
2019-04-24T19:01:19.697Z,19.80
2019-04-24T19:04:11.774Z,19.90
2019-04-24T19:07:01.321Z,19.90
2019-04-24T19:09:49.780Z,19.90
2019-04-24T19:12:38.411Z,20.00
2019-04-24T19:15:26.904Z,20.00
2019-04-24T19:18:15.675Z,20.00
2019-04-24T19:21:04.293Z,20.00
2019-04-24T19:23:52.616Z,20.10
2019-04-24T19:26:41.693Z,20.10
2019-04-24T19:29:30.206Z,20.10
2019-04-24T19:32:18.384Z,20.10
2019-04-24T19:35:07.031Z,20.20
2019-04-24T19:37:55.435Z,20.20
2019-04-24T19:40:43.955Z,20.20
2019-04-24T19:43:32.308Z,20.20
2019-04-24T19:46:22.387Z,20.20
2019-04-24T19:49:11.180Z,20.20
2019-04-24T19:52:02.137Z,20.30
2019-04-24T19:54:50.736Z,20.20
2019-04-24T19:57:39.115Z,20.30
2019-04-24T20:00:27.589Z,20.30
2019-04-24T20:03:16.285Z,20.30
2019-04-24T20:06:04.711Z,20.30
2019-04-24T20:08:53.023Z,20.30
2019-04-24T20:11:43.126Z,20.40
2019-04-24T20:14:31.305Z,20.40
2019-04-24T20:17:19.565Z,20.40
2019-04-24T20:20:08.495Z,20.40
2019-04-24T20:22:56.500Z,20.40
2019-04-24T20:25:44.928Z,20.30
2019-04-24T20:28:33.596Z,20.30
2019-04-24T20:31:22.189Z,20.30
2019-04-24T20:34:11.293Z,20.30
2019-04-24T20:36:59.313Z,20.30
2019-04-24T20:39:47.739Z,20.30
2019-04-24T20:42:36.009Z,20.20
2019-04-24T20:45:24.339Z,20.20
2019-04-24T20:48:12.662Z,20.20
2019-04-24T20:51:01.300Z,20.20
2019-04-24T20:53:49.570Z,20.20
2019-04-24T20:56:37.635Z,20.10
2019-04-24T20:59:26.119Z,20.10
2019-04-24T21:02:14.885Z,20.10
2019-04-24T21:05:03.229Z,20.10
2019-04-24T21:07:56.367Z,20.10
2019-04-24T21:10:44.756Z,20.00
2019-04-24T21:13:33.245Z,20.00
2019-04-24T21:16:22.840Z,20.00
2019-04-24T21:19:11.530Z,20.00
2019-04-24T21:21:59.492Z,20.00
2019-04-24T21:24:47.837Z,19.90
2019-04-24T21:27:35.782Z,19.90
2019-04-24T21:30:25.944Z,19.90
2019-04-24T21:33:14.158Z,19.90
2019-04-24T21:36:02.786Z,19.80
2019-04-24T21:38:52.271Z,19.80
2019-04-24T21:41:40.546Z,19.80
2019-04-24T21:44:28.725Z,19.80
2019-04-24T21:47:16.999Z,19.70
2019-04-24T21:50:06.284Z,19.70
2019-04-24T21:52:54.648Z,19.70
2019-04-24T21:55:42.902Z,19.70
2019-04-24T21:58:32.609Z,19.60
2019-04-24T22:04:25.890Z,19.60
2019-04-24T22:07:15.881Z,19.60
2019-04-24T22:10:07.234Z,19.50
2019-04-24T22:12:55.367Z,19.50
2019-04-24T22:15:43.940Z,19.50
2019-04-24T22:18:33.281Z,19.50
2019-04-24T22:21:23.985Z,19.50
2019-04-24T22:24:17.910Z,19.40
2019-04-24T22:27:05.523Z,19.40
2019-04-24T22:29:53.747Z,19.40
2019-04-24T22:32:42.173Z,19.30
2019-04-24T22:35:32.772Z,19.30
2019-04-24T22:38:23.853Z,19.30
2019-04-24T22:41:13.805Z,19.30
2019-04-24T22:44:02.211Z,19.30
2019-04-24T22:46:51.921Z,19.20
2019-04-24T22:49:41.166Z,19.20
2019-04-24T22:52:29.518Z,19.20
2019-04-24T22:55:18.289Z,19.20
2019-04-24T22:58:06.468Z,19.10
2019-04-24T23:00:54.484Z,19.10
2019-04-24T23:03:43.535Z,19.10
2019-04-24T23:06:32.915Z,19.00
2019-04-24T23:09:23.894Z,19.00
2019-04-24T23:12:12.580Z,19.00
2019-04-24T23:15:01.014Z,19.00
2019-04-24T23:17:49.688Z,19.00
2019-04-24T23:20:39.716Z,18.90
2019-04-24T23:23:47.148Z,18.90
2019-04-24T23:26:36.985Z,18.90
2019-04-24T23:29:33.583Z,18.90
2019-04-24T23:32:23.750Z,18.90
2019-04-24T23:35:12.138Z,18.80
2019-04-24T23:38:01.476Z,18.80
2019-04-24T23:40:49.610Z,18.80
2019-04-24T23:43:38.332Z,18.80
2019-04-24T23:46:26.805Z,18.70
2019-04-24T23:49:14.896Z,18.70
2019-04-24T23:52:03.692Z,18.70
2019-04-24T23:55:03.883Z,18.70
2019-04-24T23:57:42.224Z,18.70
